XSN02L LERL-LPPT
Flight info
| Callsign | XSN02L |
|---|---|
| Flight time | N/A |
| Altitude | 8000 |
| Route | XULSA DCT UPULO |
| Aircraft | C208/L-SDFGR/C |
Departure
| Time | 2026-05-04 15:25 |
|---|---|
| Airport | Ciudad Real International Airport (LERL) |
Arrival
| Time | N/A |
|---|---|
| Airport | Lisbon Humberto Delgado Airport (LPPT) |
| Time | Latitude | Longitude | Altitude | Speed | Heading |
|---|---|---|---|---|---|
| 2026-05-04 15:24 | 38.85463 | -3.95915 | 2103 ft | 0 kts | 283° |
| 2026-05-04 15:24 | 38.85562 | -3.96497 | 2114 ft | 83 kts | 282° |
| 2026-05-04 15:25 | 38.85653 | -3.97227 | 2422 ft | 83 kts | 270° |
| 2026-05-04 15:25 | 38.85628 | -3.97940 | 2743 ft | 79 kts | 276° |
| 2026-05-04 15:25 | 38.85859 | -3.98555 | 3053 ft | 74 kts | 293° |
| 2026-05-04 15:26 | 38.86383 | -3.99736 | 3667 ft | 83 kts | 295° |
| 2026-05-04 15:26 | 38.86697 | -4.00395 | 3986 ft | 89 kts | 297° |
| 2026-05-04 15:26 | 38.87366 | -4.01758 | 4637 ft | 93 kts | 296° |
| 2026-05-04 15:27 | 38.87714 | -4.02454 | 4974 ft | 91 kts | 297° |
| 2026-05-04 15:27 | 38.88405 | -4.03835 | 5624 ft | 94 kts | 298° |
| 2026-05-04 15:28 | 38.89129 | -4.05272 | 6293 ft | 98 kts | 297° |
| 2026-05-04 15:28 | 38.89498 | -4.06000 | 6607 ft | 96 kts | 297° |
| 2026-05-04 15:28 | 38.90220 | -4.07436 | 7237 ft | 98 kts | 297° |
| 2026-05-04 15:29 | 38.90588 | -4.08170 | 7552 ft | 96 kts | 296° |
| 2026-05-04 15:30 | 38.92264 | -4.11499 | 8012 ft | 135 kts | 298° |
| 2026-05-04 15:30 | 38.93865 | -4.14692 | 7953 ft | 144 kts | 298° |
| 2026-05-04 15:31 | 38.94912 | -4.16768 | 7936 ft | 132 kts | 297° |
| 2026-05-04 15:31 | 38.95404 | -4.17750 | 7933 ft | 130 kts | 298° |
| 2026-05-04 15:32 | 38.96906 | -4.20734 | 7942 ft | 134 kts | 297° |
| 2026-05-04 15:32 | 38.97905 | -4.22732 | 7940 ft | 132 kts | 297° |
| 2026-05-04 15:33 | 38.98899 | -4.24705 | 7947 ft | 130 kts | 298° |
| 2026-05-04 15:34 | 39.00060 | -4.27713 | 7950 ft | 121 kts | 268° |
| 2026-05-04 15:34 | 39.00070 | -4.28797 | 7950 ft | 122 kts | 270° |
| 2026-05-04 15:34 | 39.00129 | -4.30967 | 7959 ft | 123 kts | 270° |
| 2026-05-04 15:35 | 39.00187 | -4.33198 | 7956 ft | 126 kts | 270° |
| 2026-05-04 15:35 | 39.00217 | -4.34325 | 7959 ft | 126 kts | 271° |
| 2026-05-04 15:35 | 39.00250 | -4.35453 | 7963 ft | 127 kts | 270° |
| 2026-05-04 15:36 | 39.00309 | -4.37718 | 7958 ft | 125 kts | 270° |
| 2026-05-04 15:36 | 39.00338 | -4.38829 | 7960 ft | 125 kts | 270° |
| 2026-05-04 15:36 | 39.00367 | -4.39942 | 7957 ft | 125 kts | 270° |
| 2026-05-04 15:37 | 39.00398 | -4.41069 | 7952 ft | 126 kts | 271° |
| 2026-05-04 15:37 | 39.00428 | -4.42192 | 7956 ft | 126 kts | 270° |
| 2026-05-04 15:37 | 39.00458 | -4.43326 | 7967 ft | 129 kts | 270° |
| 2026-05-04 15:37 | 39.00487 | -4.44498 | 7968 ft | 132 kts | 270° |
| 2026-05-04 15:38 | 39.00520 | -4.45693 | 7961 ft | 135 kts | 271° |
| 2026-05-04 15:38 | 39.00549 | -4.46904 | 7963 ft | 135 kts | 271° |
| 2026-05-04 15:38 | 39.00580 | -4.48088 | 7961 ft | 131 kts | 270° |
| 2026-05-04 15:38 | 39.00607 | -4.49237 | 7953 ft | 127 kts | 270° |
| 2026-05-04 15:39 | 39.00636 | -4.50360 | 7946 ft | 125 kts | 271° |
| 2026-05-04 15:39 | 39.00665 | -4.51462 | 7944 ft | 123 kts | 270° |
| 2026-05-04 15:39 | 39.00718 | -4.53628 | 7952 ft | 118 kts | 271° |
| 2026-05-04 15:40 | 39.00747 | -4.54710 | 7963 ft | 122 kts | 270° |
| 2026-05-04 15:40 | 39.00773 | -4.55801 | 7964 ft | 125 kts | 271° |
| 2026-05-04 15:40 | 39.00803 | -4.56944 | 7960 ft | 126 kts | 271° |
| 2026-05-04 15:40 | 39.00830 | -4.58064 | 7966 ft | 125 kts | 271° |
| 2026-05-04 15:41 | 39.00858 | -4.59184 | 7962 ft | 125 kts | 271° |
| 2026-05-04 15:41 | 39.00885 | -4.60306 | 7972 ft | 128 kts | 272° |
| 2026-05-04 15:41 | 39.00914 | -4.61462 | 7977 ft | 135 kts | 272° |
| 2026-05-04 15:41 | 39.00945 | -4.62683 | 7979 ft | 138 kts | 272° |
| 2026-05-04 15:42 | 39.00975 | -4.63932 | 7983 ft | 141 kts | 272° |
| 2026-05-04 15:42 | 39.01007 | -4.65224 | 7991 ft | 147 kts | 272° |
| 2026-05-04 15:42 | 39.01039 | -4.66553 | 7994 ft | 150 kts | 272° |
| 2026-05-04 15:42 | 39.01070 | -4.67899 | 7994 ft | 152 kts | 272° |
| 2026-05-04 15:43 | 39.01102 | -4.69256 | 7995 ft | 152 kts | 272° |
| 2026-05-04 15:43 | 39.01134 | -4.70619 | 7996 ft | 153 kts | 272° |
| 2026-05-04 15:43 | 39.01166 | -4.71987 | 7995 ft | 153 kts | 272° |
| 2026-05-04 15:43 | 39.01198 | -4.73354 | 7995 ft | 153 kts | 272° |
| 2026-05-04 15:44 | 39.01230 | -4.74719 | 7995 ft | 153 kts | 272° |
| 2026-05-04 15:44 | 39.01262 | -4.76085 | 7995 ft | 153 kts | 272° |
| 2026-05-04 15:44 | 39.01293 | -4.77450 | 7993 ft | 153 kts | 272° |
| 2026-05-04 15:44 | 39.01326 | -4.78811 | 7994 ft | 152 kts | 272° |
| 2026-05-04 15:45 | 39.01356 | -4.80173 | 7992 ft | 152 kts | 272° |
| 2026-05-04 15:45 | 39.01387 | -4.81535 | 7993 ft | 152 kts | 272° |
| 2026-05-04 15:45 | 39.01418 | -4.82896 | 7993 ft | 152 kts | 272° |
| 2026-05-04 15:45 | 39.01448 | -4.84258 | 7993 ft | 153 kts | 272° |
| 2026-05-04 15:46 | 39.01469 | -4.85161 | 7992 ft | 153 kts | 272° |
| 2026-05-04 15:46 | 39.01500 | -4.86523 | 7992 ft | 152 kts | 272° |
| 2026-05-04 15:46 | 39.01530 | -4.87885 | 7992 ft | 152 kts | 272° |
| 2026-05-04 15:46 | 39.01560 | -4.89244 | 7992 ft | 152 kts | 272° |
| 2026-05-04 15:47 | 39.01590 | -4.90606 | 7991 ft | 152 kts | 272° |
| 2026-05-04 15:47 | 39.01619 | -4.91969 | 7989 ft | 152 kts | 272° |
| 2026-05-04 15:47 | 39.01649 | -4.93332 | 7989 ft | 152 kts | 272° |
| 2026-05-04 15:47 | 39.01679 | -4.94693 | 7988 ft | 152 kts | 271° |
| 2026-05-04 15:48 | 39.01708 | -4.96052 | 7987 ft | 152 kts | 272° |
| 2026-05-04 15:48 | 39.01737 | -4.97413 | 7987 ft | 152 kts | 272° |
| 2026-05-04 15:48 | 39.01795 | -5.00132 | 7987 ft | 152 kts | 272° |
| 2026-05-04 15:49 | 39.01825 | -5.01491 | 7987 ft | 152 kts | 272° |
| 2026-05-04 15:49 | 39.01853 | -5.02851 | 7988 ft | 152 kts | 271° |
| 2026-05-04 15:49 | 39.01880 | -5.04212 | 7989 ft | 152 kts | 271° |
| 2026-05-04 15:49 | 39.01908 | -5.05576 | 7989 ft | 152 kts | 271° |
| 2026-05-04 15:50 | 39.01936 | -5.06934 | 7989 ft | 152 kts | 271° |
| 2026-05-04 15:50 | 39.01965 | -5.08294 | 7988 ft | 152 kts | 271° |
| 2026-05-04 15:50 | 39.01992 | -5.09651 | 7988 ft | 152 kts | 272° |
| 2026-05-04 15:50 | 39.02019 | -5.11007 | 7987 ft | 152 kts | 271° |
| 2026-05-04 15:51 | 39.02047 | -5.12360 | 7987 ft | 152 kts | 272° |
| 2026-05-04 15:51 | 39.02075 | -5.13720 | 7988 ft | 152 kts | 271° |
| 2026-05-04 15:51 | 39.02101 | -5.15082 | 7987 ft | 152 kts | 271° |
| 2026-05-04 15:51 | 39.02128 | -5.16441 | 7987 ft | 152 kts | 271° |
| 2026-05-04 15:52 | 39.02155 | -5.17795 | 7986 ft | 152 kts | 272° |
| 2026-05-04 15:52 | 39.02182 | -5.19153 | 7985 ft | 152 kts | 271° |
| 2026-05-04 15:52 | 39.02208 | -5.20510 | 7987 ft | 152 kts | 271° |
| 2026-05-04 15:52 | 39.02233 | -5.21868 | 7985 ft | 152 kts | 271° |
| 2026-05-04 15:53 | 39.02260 | -5.23226 | 7986 ft | 152 kts | 271° |
| 2026-05-04 15:53 | 39.02286 | -5.24582 | 7985 ft | 152 kts | 271° |
| 2026-05-04 15:53 | 39.02312 | -5.25938 | 7985 ft | 152 kts | 271° |
| 2026-05-04 15:53 | 39.02338 | -5.27295 | 7985 ft | 152 kts | 271° |
| 2026-05-04 15:54 | 39.02362 | -5.28650 | 7985 ft | 152 kts | 271° |
| 2026-05-04 15:54 | 39.02388 | -5.30005 | 7984 ft | 152 kts | 271° |
| 2026-05-04 15:54 | 39.02413 | -5.31362 | 7984 ft | 152 kts | 271° |
| 2026-05-04 15:54 | 39.02438 | -5.32717 | 7982 ft | 152 kts | 271° |
| 2026-05-04 15:55 | 39.02461 | -5.34073 | 7977 ft | 152 kts | 271° |
| 2026-05-04 15:55 | 39.02487 | -5.35428 | 7980 ft | 152 kts | 271° |
| 2026-05-04 15:55 | 39.02512 | -5.36788 | 7979 ft | 152 kts | 271° |
| 2026-05-04 15:55 | 39.02537 | -5.38151 | 7977 ft | 152 kts | 271° |
| 2026-05-04 15:56 | 39.02560 | -5.39509 | 7976 ft | 152 kts | 271° |
| 2026-05-04 15:56 | 39.02584 | -5.40863 | 7978 ft | 151 kts | 271° |
| 2026-05-04 15:56 | 39.02608 | -5.42217 | 7978 ft | 152 kts | 271° |
| 2026-05-04 15:56 | 39.02632 | -5.43576 | 7982 ft | 152 kts | 271° |
| 2026-05-04 15:57 | 39.02655 | -5.44936 | 7978 ft | 152 kts | 271° |
| 2026-05-04 15:57 | 39.02678 | -5.46296 | 7978 ft | 152 kts | 271° |
| 2026-05-04 15:57 | 39.02703 | -5.47655 | 7977 ft | 152 kts | 271° |
| 2026-05-04 15:57 | 39.02727 | -5.49013 | 7978 ft | 152 kts | 271° |
| 2026-05-04 15:58 | 39.02748 | -5.50369 | 7978 ft | 152 kts | 271° |
| 2026-05-04 15:58 | 39.02772 | -5.51725 | 7979 ft | 152 kts | 271° |
| 2026-05-04 15:58 | 39.02794 | -5.53082 | 7979 ft | 152 kts | 271° |
| 2026-05-04 15:58 | 39.02815 | -5.54440 | 7979 ft | 152 kts | 271° |
| 2026-05-04 15:59 | 39.02839 | -5.55795 | 7978 ft | 152 kts | 271° |
| 2026-05-04 15:59 | 39.02862 | -5.57151 | 7978 ft | 152 kts | 271° |
| 2026-05-04 15:59 | 39.02883 | -5.58505 | 7977 ft | 151 kts | 271° |
| 2026-05-04 15:59 | 39.02904 | -5.59858 | 7978 ft | 151 kts | 271° |
| 2026-05-04 16:00 | 39.02925 | -5.61214 | 7977 ft | 151 kts | 271° |
| 2026-05-04 16:00 | 39.02947 | -5.62565 | 7977 ft | 152 kts | 271° |
| 2026-05-04 16:00 | 39.02969 | -5.63923 | 7977 ft | 152 kts | 271° |
| 2026-05-04 16:00 | 39.02989 | -5.65279 | 7977 ft | 152 kts | 271° |
| 2026-05-04 16:01 | 39.03010 | -5.66632 | 7977 ft | 152 kts | 271° |
| 2026-05-04 16:01 | 39.03031 | -5.67988 | 7979 ft | 151 kts | 271° |
| 2026-05-04 16:01 | 39.03051 | -5.69343 | 7979 ft | 152 kts | 271° |
| 2026-05-04 16:01 | 39.03073 | -5.70698 | 7979 ft | 152 kts | 271° |
| 2026-05-04 16:02 | 39.03094 | -5.72052 | 7979 ft | 151 kts | 271° |
| 2026-05-04 16:02 | 39.03113 | -5.73405 | 7980 ft | 151 kts | 271° |
| 2026-05-04 16:02 | 39.03154 | -5.76112 | 7978 ft | 151 kts | 271° |
| 2026-05-04 16:03 | 39.03173 | -5.77463 | 7979 ft | 152 kts | 271° |
| 2026-05-04 16:03 | 39.03193 | -5.78818 | 7981 ft | 151 kts | 271° |
| 2026-05-04 16:03 | 39.03213 | -5.80171 | 7977 ft | 152 kts | 271° |
| 2026-05-04 16:03 | 39.03231 | -5.81526 | 7979 ft | 151 kts | 271° |
| 2026-05-04 16:04 | 39.03250 | -5.82879 | 7980 ft | 152 kts | 271° |
| 2026-05-04 16:04 | 39.03291 | -5.85590 | 7983 ft | 151 kts | 271° |
| 2026-05-04 16:04 | 39.03308 | -5.86943 | 7982 ft | 151 kts | 271° |
| 2026-05-04 16:05 | 39.03325 | -5.88294 | 7982 ft | 151 kts | 271° |
| 2026-05-04 16:05 | 39.03342 | -5.89628 | 7982 ft | 151 kts | 271° |
| 2026-05-04 16:05 | 39.03381 | -5.92334 | 7986 ft | 151 kts | 271° |
| 2026-05-04 16:06 | 39.03398 | -5.93689 | 7983 ft | 151 kts | 271° |
| 2026-05-04 16:06 | 39.03445 | -5.97308 | 7982 ft | 151 kts | 271° |
| 2026-05-04 16:07 | 39.03467 | -5.99100 | 7980 ft | 151 kts | 271° |
| 2026-05-04 16:07 | 39.03517 | -6.03155 | 7984 ft | 151 kts | 271° |
| 2026-05-04 16:08 | 39.03534 | -6.04509 | 7983 ft | 151 kts | 271° |
| 2026-05-04 16:08 | 39.03584 | -6.08563 | 7983 ft | 151 kts | 271° |
| 2026-05-04 16:09 | 39.03615 | -6.11267 | 7983 ft | 151 kts | 271° |
| 2026-05-04 16:09 | 39.03646 | -6.13979 | 7983 ft | 152 kts | 271° |
| 2026-05-04 16:10 | 39.03677 | -6.16691 | 7982 ft | 151 kts | 271° |
| 2026-05-04 16:11 | 39.03722 | -6.20749 | 7981 ft | 151 kts | 271° |
| 2026-05-04 16:11 | 39.03736 | -6.22103 | 7982 ft | 151 kts | 271° |
| 2026-05-04 16:12 | 39.03779 | -6.26163 | 7983 ft | 152 kts | 271° |
| 2026-05-04 16:12 | 39.03820 | -6.30226 | 7982 ft | 151 kts | 271° |
| 2026-05-04 16:13 | 39.03847 | -6.32934 | 7982 ft | 151 kts | 271° |
| 2026-05-04 16:13 | 39.03874 | -6.35639 | 7982 ft | 151 kts | 271° |
| 2026-05-04 16:14 | 39.03899 | -6.38343 | 7983 ft | 151 kts | 271° |
| 2026-05-04 16:14 | 39.03924 | -6.41044 | 7983 ft | 151 kts | 271° |
| 2026-05-04 16:15 | 39.03960 | -6.45102 | 7983 ft | 151 kts | 271° |
| 2026-05-04 16:16 | 39.03984 | -6.47805 | 7982 ft | 151 kts | 271° |
| 2026-05-04 16:16 | 39.04017 | -6.51857 | 7982 ft | 151 kts | 271° |
| 2026-05-04 16:17 | 39.04039 | -6.54560 | 7981 ft | 151 kts | 271° |
| 2026-05-04 16:18 | 39.04070 | -6.58612 | 7980 ft | 151 kts | 271° |
| 2026-05-04 16:18 | 39.04080 | -6.59962 | 7980 ft | 151 kts | 271° |
| 2026-05-04 16:19 | 39.04110 | -6.64016 | 7980 ft | 151 kts | 271° |
| 2026-05-04 16:19 | 39.04129 | -6.66720 | 7983 ft | 151 kts | 271° |
| 2026-05-04 16:20 | 39.04156 | -6.70770 | 7978 ft | 151 kts | 271° |
| 2026-05-04 16:20 | 39.04174 | -6.73470 | 7978 ft | 151 kts | 271° |
| 2026-05-04 16:21 | 39.04199 | -6.77524 | 7977 ft | 151 kts | 271° |
| 2026-05-04 16:22 | 39.03788 | -6.80150 | 7976 ft | 151 kts | 254° |
| 2026-05-04 16:22 | 39.02986 | -6.84070 | 7980 ft | 151 kts | 256° |
| 2026-05-04 16:23 | 39.02204 | -6.87996 | 7976 ft | 151 kts | 256° |
| 2026-05-04 16:24 | 39.01161 | -6.93226 | 7980 ft | 152 kts | 256° |
| 2026-05-04 16:25 | 39.00635 | -6.95856 | 7977 ft | 152 kts | 256° |
| 2026-05-04 16:26 | 38.99586 | -7.01097 | 7977 ft | 151 kts | 256° |
| 2026-05-04 16:26 | 38.98798 | -7.05013 | 7979 ft | 151 kts | 256° |
| 2026-05-04 16:27 | 38.98275 | -7.07626 | 7977 ft | 151 kts | 256° |
| 2026-05-04 16:28 | 38.97576 | -7.11103 | 7980 ft | 151 kts | 256° |
| 2026-05-04 16:28 | 38.96785 | -7.15014 | 7983 ft | 150 kts | 256° |
| 2026-05-04 16:29 | 38.95731 | -7.20229 | 7982 ft | 151 kts | 256° |
| 2026-05-04 16:30 | 38.94939 | -7.24143 | 7981 ft | 151 kts | 256° |
| 2026-05-04 16:31 | 38.94407 | -7.26755 | 7981 ft | 151 kts | 256° |
| 2026-05-04 16:31 | 38.93610 | -7.30678 | 7978 ft | 151 kts | 256° |
| 2026-05-04 16:32 | 38.92813 | -7.34595 | 7977 ft | 151 kts | 256° |
| 2026-05-04 16:33 | 38.92281 | -7.37204 | 7977 ft | 151 kts | 256° |
| 2026-05-04 16:33 | 38.91748 | -7.39814 | 7976 ft | 151 kts | 256° |
| 2026-05-04 16:34 | 38.91216 | -7.42422 | 7976 ft | 151 kts | 256° |
| 2026-05-04 16:34 | 38.90949 | -7.43724 | 7980 ft | 151 kts | 256° |
| 2026-05-04 16:35 | 38.90147 | -7.47637 | 7981 ft | 151 kts | 256° |
| 2026-05-04 16:35 | 38.89344 | -7.51550 | 7975 ft | 151 kts | 256° |
| 2026-05-04 16:36 | 38.89077 | -7.52853 | 7978 ft | 151 kts | 256° |
| 2026-05-04 16:36 | 38.88542 | -7.55460 | 7975 ft | 151 kts | 256° |
| 2026-05-04 16:37 | 38.88004 | -7.58069 | 7975 ft | 151 kts | 256° |
| 2026-05-04 16:37 | 38.87734 | -7.59374 | 7975 ft | 151 kts | 256° |
| 2026-05-04 16:37 | 38.87195 | -7.61980 | 7977 ft | 151 kts | 256° |
| 2026-05-04 16:38 | 38.86657 | -7.64588 | 7975 ft | 151 kts | 256° |
| 2026-05-04 16:39 | 38.85849 | -7.68493 | 7974 ft | 151 kts | 256° |
| 2026-05-04 16:39 | 38.85310 | -7.71094 | 7979 ft | 151 kts | 256° |
| 2026-05-04 16:40 | 38.84772 | -7.73696 | 7978 ft | 151 kts | 256° |
| 2026-05-04 16:40 | 38.84230 | -7.76296 | 7977 ft | 151 kts | 255° |
| 2026-05-04 16:41 | 38.83690 | -7.78897 | 7976 ft | 151 kts | 256° |
| 2026-05-04 16:41 | 38.82878 | -7.82796 | 7981 ft | 151 kts | 255° |
| 2026-05-04 16:42 | 38.82065 | -7.86692 | 7976 ft | 151 kts | 255° |
| 2026-05-04 16:43 | 38.81521 | -7.89293 | 7982 ft | 151 kts | 255° |
| 2026-05-04 16:43 | 38.80980 | -7.91879 | 7976 ft | 151 kts | 255° |
| 2026-05-04 16:43 | 38.80708 | -7.93178 | 7976 ft | 151 kts | 255° |
| 2026-05-04 16:44 | 38.79619 | -7.98378 | 7980 ft | 151 kts | 255° |
| 2026-05-04 16:45 | 38.79067 | -8.00996 | 7976 ft | 151 kts | 255° |
| 2026-05-04 16:46 | 38.78247 | -8.04891 | 7976 ft | 151 kts | 255° |
| 2026-05-04 16:46 | 38.77700 | -8.07490 | 7975 ft | 151 kts | 255° |
| 2026-05-04 16:47 | 38.77152 | -8.10085 | 7975 ft | 151 kts | 255° |
| 2026-05-04 16:47 | 38.76604 | -8.12677 | 7976 ft | 151 kts | 255° |
| 2026-05-04 16:48 | 38.75787 | -8.16544 | 7978 ft | 151 kts | 255° |
| 2026-05-04 16:48 | 38.75512 | -8.17842 | 7978 ft | 151 kts | 255° |
| 2026-05-04 16:49 | 38.74961 | -8.20437 | 7978 ft | 151 kts | 255° |
| 2026-05-04 16:49 | 38.74406 | -8.23051 | 7983 ft | 151 kts | 255° |
| 2026-05-04 16:50 | 38.73856 | -8.25642 | 7977 ft | 151 kts | 255° |
| 2026-05-04 16:50 | 38.73304 | -8.28238 | 7985 ft | 151 kts | 255° |
| 2026-05-04 16:51 | 38.72755 | -8.30810 | 7980 ft | 151 kts | 255° |
| 2026-05-04 16:51 | 38.72479 | -8.32108 | 7979 ft | 151 kts | 255° |
| 2026-05-04 16:51 | 38.71926 | -8.34699 | 7976 ft | 151 kts | 255° |
| 2026-05-04 16:52 | 38.71371 | -8.37288 | 7977 ft | 151 kts | 255° |
| 2026-05-04 16:52 | 38.71094 | -8.38584 | 7976 ft | 151 kts | 255° |
| 2026-05-04 16:53 | 38.70539 | -8.41180 | 7980 ft | 151 kts | 255° |
| 2026-05-04 16:53 | 38.69702 | -8.45086 | 7985 ft | 151 kts | 255° |
| 2026-05-04 16:54 | 38.69424 | -8.46382 | 7975 ft | 151 kts | 255° |
| 2026-05-04 16:55 | 38.68316 | -8.51542 | 7979 ft | 151 kts | 255° |
| 2026-05-04 16:55 | 38.67756 | -8.54134 | 7977 ft | 151 kts | 255° |
| 2026-05-04 16:56 | 38.67199 | -8.56719 | 7982 ft | 151 kts | 255° |
| 2026-05-04 16:56 | 38.66362 | -8.60598 | 7981 ft | 151 kts | 255° |
| 2026-05-04 16:57 | 38.66084 | -8.61891 | 7980 ft | 151 kts | 255° |
| 2026-05-04 16:57 | 38.65521 | -8.64481 | 7976 ft | 151 kts | 255° |
| 2026-05-04 16:58 | 38.64682 | -8.68357 | 7976 ft | 151 kts | 255° |
| 2026-05-04 16:58 | 38.64401 | -8.69652 | 7977 ft | 151 kts | 255° |
| 2026-05-04 16:59 | 38.63840 | -8.72240 | 7983 ft | 151 kts | 255° |
| 2026-05-04 17:00 | 38.62715 | -8.77413 | 7978 ft | 151 kts | 255° |
| 2026-05-04 17:00 | 38.61867 | -8.81299 | 7978 ft | 151 kts | 255° |
| 2026-05-04 17:01 | 38.61306 | -8.83886 | 7980 ft | 151 kts | 255° |
| 2026-05-04 17:01 | 38.60740 | -8.86468 | 7975 ft | 151 kts | 255° |